Time;durP1;ratioP1;P1;durP2;ratioP2;P2;SDS_P1;SDS_P2;PMS_P1;PMS_P2;Temp;Humidity;BMP_temperature;BMP_pressure;BME280_temperature;BME280_humidity;BME280_pressure;Samples;Min_cycle;Max_cycle;Signal;HPM_P1;HPM_P2
2023/01/14 00:01:20;;;;;;;1.80;0.97;;;;;;;10.42;64.31;100879.34;4907104;28;97078;-49
2023/01/14 00:03:46;;;;;;;2.13;0.80;;;;;;;10.39;64.42;100874.81;4904091;28;97042;-49
2023/01/14 00:06:14;;;;;;;1.33;0.53;;;;;;;10.42;64.50;100879.34;4906597;28;96975;-48
2023/01/14 00:08:40;;;;;;;1.20;0.67;;;;;;;10.40;64.59;100868.06;4905842;28;97376;-49
2023/01/14 00:11:08;;;;;;;2.10;0.63;;;;;;;10.39;64.61;100877.56;4907558;28;97241;-49
2023/01/14 00:13:36;;;;;;;2.43;0.97;;;;;;;10.42;64.69;100885.59;4906689;28;97132;-49
2023/01/14 00:16:02;;;;;;;2.53;1.00;;;;;;;10.42;64.64;100885.59;4907558;28;97149;-49
2023/01/14 00:18:30;;;;;;;0.90;0.60;;;;;;;10.43;64.55;100895.38;4907697;28;96972;-48
2023/01/14 00:21:00;;;;;;;1.40;0.60;;;;;;;10.44;64.61;100894.13;4901693;28;96808;-48
2023/01/14 00:23:26;;;;;;;1.73;0.70;;;;;;;10.43;64.71;100906.38;4903648;28;97009;-49
2023/01/14 00:25:52;;;;;;;1.37;0.90;;;;;;;10.45;64.63;100890.16;4904729;28;97334;-50
2023/01/14 00:28:17;;;;;;;3.23;1.00;;;;;;;10.48;64.66;100897.41;4905130;28;97360;-50
2023/01/14 00:30:42;;;;;;;1.80;0.60;;;;;;;10.49;64.61;100901.69;4904668;28;96858;-49
2023/01/14 00:33:08;;;;;;;1.67;0.60;;;;;;;10.52;64.64;100905.47;4912351;28;97225;-49
2023/01/14 00:35:34;;;;;;;1.47;0.70;;;;;;;10.53;64.74;100913.22;4901168;28;97037;-50
2023/01/14 00:37:59;;;;;;;3.03;0.87;;;;;;;10.54;64.64;100906.50;4896896;28;98325;-50
2023/01/14 00:40:25;;;;;;;9.30;1.23;;;;;;;10.59;64.49;100918.78;4910341;28;97376;-49
2023/01/14 00:42:50;;;;;;;2.60;0.90;;;;;;;10.57;64.49;100913.03;4906453;28;97279;-50
2023/01/14 00:45:16;;;;;;;1.53;0.70;;;;;;;10.57;64.54;100919.25;4910159;28;97123;-50
2023/01/14 00:47:41;;;;;;;2.50;0.60;;;;;;;10.59;64.71;100909.78;4913154;28;97561;-48
2023/01/14 00:50:07;;;;;;;2.17;0.90;;;;;;;10.61;64.63;100921.81;4907840;28;97159;-50
2023/01/14 00:52:32;;;;;;;2.00;0.70;;;;;;;10.65;64.60;100914.09;4909428;28;96744;-50
2023/01/14 00:54:58;;;;;;;2.43;0.60;;;;;;;10.65;64.76;100908.59;4914433;28;97540;-49
2023/01/14 00:57:23;;;;;;;4.37;0.77;;;;;;;10.62;64.54;100908.78;4907895;28;97639;-50
2023/01/14 00:59:48;;;;;;;2.00;0.70;;;;;;;10.60;64.64;100914.03;4911641;28;96953;-50
2023/01/14 01:02:14;;;;;;;1.17;0.67;;;;;;;10.59;64.64;100921.53;4914703;28;97151;-49
2023/01/14 01:04:39;;;;;;;3.23;1.00;;;;;;;10.55;64.87;100916.25;4908121;28;97609;-50
2023/01/14 01:07:05;;;;;;;2.03;0.63;;;;;;;10.50;64.83;100936.22;4909668;28;97024;-50
2023/01/14 01:09:31;;;;;;;1.70;0.70;;;;;;;10.52;64.76;100922.72;4907377;28;97501;-50
2023/01/14 01:11:56;;;;;;;1.67;1.00;;;;;;;10.50;64.72;100944.47;4910655;28;97177;-49
2023/01/14 01:14:21;;;;;;;1.70;1.10;;;;;;;10.51;64.92;100931.44;4911446;28;97157;-49
2023/01/14 01:16:47;;;;;;;1.17;0.70;;;;;;;10.52;64.85;100930.22;4912057;28;97020;-50
2023/01/14 01:19:12;;;;;;;2.30;0.90;;;;;;;10.53;64.78;100929.72;4907512;28;97270;-50
2023/01/14 01:21:38;;;;;;;1.20;0.87;;;;;;;10.53;64.77;100934.47;4909797;28;96962;-50
2023/01/14 01:24:03;;;;;;;1.60;0.90;;;;;;;10.53;64.91;100948.22;4913764;28;96906;-50
2023/01/14 01:26:29;;;;;;;3.00;0.93;;;;;;;10.52;64.81;100944.72;4906854;28;98083;-50
2023/01/14 01:28:56;;;;;;;2.37;1.10;;;;;;;10.54;64.79;100947.00;4911968;28;96684;-50
2023/01/14 01:31:24;;;;;;;2.73;0.70;;;;;;;10.53;64.81;100945.47;4915959;28;96768;-50
2023/01/14 01:33:49;;;;;;;2.17;0.90;;;;;;;10.52;64.79;100947.47;4912211;28;96971;-48
2023/01/14 01:36:20;;;;;;;1.53;0.60;;;;;;;10.53;64.72;100957.22;4907515;28;97238;-53
2023/01/14 01:38:47;;;;;;;3.13;0.57;;;;;;;10.52;64.79;100955.75;4913938;28;96792;-50
2023/01/14 01:41:25;;;;;;;1.83;1.33;;;;;;;10.51;64.72;100954.22;4911375;28;97144;-49
2023/01/14 01:44:12;;;;;;;2.67;0.60;;;;;;;10.52;64.78;100960.47;4909170;28;97030;-48
2023/01/14 01:46:38;;;;;;;4.53;1.00;;;;;;;10.52;64.82;100966.75;4915709;28;97325;-49
2023/01/14 01:49:12;;;;;;;5.43;0.93;;;;;;;10.54;64.88;100964.25;4908467;28;98108;-50
2023/01/14 01:51:50;;;;;;;3.13;0.90;;;;;;;10.57;64.67;100977.03;4907516;28;96986;-50
2023/01/14 01:54:19;;;;;;;2.10;0.80;;;;;;;10.56;64.79;100972.03;4912311;28;97489;-50
2023/01/14 01:56:46;;;;;;;3.47;0.80;;;;;;;10.56;64.78;100985.78;4911871;28;97509;-49
2023/01/14 01:59:15;;;;;;;3.43;0.90;;;;;;;10.59;64.57;100982.06;4912842;28;96830;-50
2023/01/14 02:01:42;;;;;;;0.70;0.60;;;;;;;10.61;64.64;100989.84;4916347;28;96777;-49
2023/01/14 02:04:10;;;;;;;5.80;0.67;;;;;;;10.63;64.61;100995.59;4908154;28;97171;-49
2023/01/14 02:06:36;;;;;;;1.87;0.73;;;;;;;10.67;64.45;100996.13;4910790;28;97050;-52
2023/01/14 02:09:02;;;;;;;3.33;1.10;;;;;;;10.66;64.39;100987.13;4913655;28;97166;-49
2023/01/14 02:11:36;;;;;;;4.90;0.70;;;;;;;10.68;64.11;100998.41;4913805;28;96880;-50
2023/01/14 02:14:01;;;;;;;0.93;0.60;;;;;;;10.65;64.43;100999.38;4909589;28;96650;-49
2023/01/14 02:16:36;;;;;;;4.40;1.03;;;;;;;10.64;64.34;100999.88;4911634;28;97238;-48
2023/01/14 02:19:40;;;;;;;1.53;0.50;;;;;;;10.62;64.25;100997.59;4909256;28;97039;-49
2023/01/14 02:22:47;;;;;;;3.73;0.63;;;;;;;10.62;64.24;101010.59;4888380;28;97945;-48
2023/01/14 02:25:41;;;;;;;2.70;0.70;;;;;;;10.57;64.45;101003.81;4909625;28;96602;-49
2023/01/14 02:28:44;;;;;;;3.87;0.80;;;;;;;10.56;64.24;100994.03;4903699;28;97438;-49
2023/01/14 02:31:19;;;;;;;6.17;0.97;;;;;;;10.55;64.50;101011.75;4909085;28;97186;-49
2023/01/14 02:34:17;;;;;;;2.97;0.50;;;;;;;10.56;64.41;101016.03;4905814;28;97283;-49
2023/01/14 02:36:52;;;;;;;4.00;0.80;;;;;;;10.55;64.22;101018.03;4909732;28;97099;-49
2023/01/14 02:39:42;;;;;;;2.30;0.60;;;;;;;10.54;64.29;101015.75;4907353;28;97275;-49
2023/01/14 02:45:46;;;;;;;2.90;0.70;;;;;;;10.47;64.35;101008.69;4908457;28;96625;-49
2023/01/14 02:48:14;;;;;;;1.87;0.60;;;;;;;10.48;64.40;101014.94;4910910;28;97013;-49
2023/01/14 02:50:40;;;;;;;1.00;0.70;;;;;;;10.50;64.38;101007.72;4907112;28;97605;-49
2023/01/14 02:53:16;;;;;;;2.40;0.50;;;;;;;10.53;64.35;101006.75;4911721;28;97211;-48
2023/01/14 02:55:41;;;;;;;1.33;0.60;;;;;;;10.51;64.33;101006.47;4916178;28;96773;-48
2023/01/14 02:58:25;;;;;;;7.60;1.20;;;;;;;10.49;64.42;101008.97;4908903;28;96990;-49
2023/01/14 03:01:28;;;;;;;1.10;0.60;;;;;;;10.51;64.15;101000.97;4910185;28;97864;-49
2023/01/14 03:04:02;;;;;;;1.43;0.83;;;;;;;10.52;64.36;101005.25;4908214;28;97533;-49
2023/01/14 03:07:02;;;;;;;1.50;0.87;;;;;;;10.52;64.20;101004.50;4908445;28;97075;-48
2023/01/14 03:09:32;;;;;;;2.60;0.77;;;;;;;10.50;64.19;101002.22;4913493;28;97122;-49
2023/01/14 03:12:42;;;;;;;1.83;0.60;;;;;;;10.49;64.27;101006.22;4907577;28;97358;-49
2023/01/14 03:15:50;;;;;;;2.13;0.90;;;;;;;10.48;64.33;101007.44;4909415;28;97121;-49
2023/01/14 03:18:33;;;;;;;2.47;0.70;;;;;;;10.47;64.34;101000.44;4850302;28;97160;-49
2023/01/14 03:21:02;;;;;;;3.50;1.00;;;;;;;10.48;64.42;101003.94;4848712;28;97162;-49
2023/01/14 03:23:32;;;;;;;4.10;1.10;;;;;;;10.49;64.49;101003.47;4885748;28;96722;-49
2023/01/14 03:26:00;;;;;;;2.03;0.90;;;;;;;10.47;64.42;100992.19;4911520;28;97054;-50
2023/01/14 03:28:30;;;;;;;3.60;0.83;;;;;;;10.49;64.43;101003.47;4906954;28;97026;-49
2023/01/14 03:31:00;;;;;;;2.73;1.00;;;;;;;10.47;64.48;101005.19;4907944;28;96812;-49
2023/01/14 03:33:36;;;;;;;2.57;1.00;;;;;;;10.49;64.52;101002.69;4907627;28;96986;-49
2023/01/14 03:36:04;;;;;;;4.90;0.97;;;;;;;10.51;64.48;101011.97;4906846;28;96991;-49
2023/01/14 03:39:13;;;;;;;3.03;1.13;;;;;;;10.49;64.70;101000.72;4910706;28;97341;-49
2023/01/14 03:44:28;;;;;;;4.37;1.00;;;;;;;10.46;64.73;101012.66;4910165;28;97109;-49
2023/01/14 03:46:54;;;;;;;3.07;1.13;;;;;;;10.45;64.83;101011.16;4913014;28;97334;-49
2023/01/14 03:49:20;;;;;;;2.40;1.27;;;;;;;10.43;64.93;101018.38;4907207;28;97266;-49
2023/01/14 03:51:58;;;;;;;5.60;1.20;;;;;;;10.45;65.05;101016.66;4908944;28;97628;-49
2023/01/14 03:54:31;;;;;;;2.60;1.20;;;;;;;10.43;64.97;101010.91;4912101;28;97514;-49
2023/01/14 03:57:15;;;;;;;9.00;1.57;;;;;;;10.38;65.34;101024.56;4905968;28;97155;-49
2023/01/14 03:59:59;;;;;;;6.10;1.33;;;;;;;10.34;65.21;101013.78;4914548;28;97116;-49
2023/01/14 04:02:28;;;;;;;4.17;1.30;;;;;;;10.35;65.16;101025.53;4911097;28;97192;-49
2023/01/14 04:04:54;;;;;;;4.60;1.20;;;;;;;10.33;65.11;101019.78;4905548;28;97686;-49
2023/01/14 04:07:21;;;;;;;6.00;1.60;;;;;;;10.31;65.23;101025.00;4908059;28;97122;-49
2023/01/14 04:09:46;;;;;;;2.60;1.17;;;;;;;10.27;65.24;101021.69;4909547;28;96730;-50
2023/01/14 04:12:12;;;;;;;7.23;1.73;;;;;;;10.27;65.21;101016.94;4907772;28;97048;-49
2023/01/14 04:17:21;;;;;;;2.97;1.33;;;;;;;10.26;65.25;101015.44;4914940;28;97091;-49
2023/01/14 04:19:47;;;;;;;2.20;1.40;;;;;;;10.26;65.25;101009.94;4911281;28;96605;-49
2023/01/14 04:22:12;;;;;;;4.17;1.90;;;;;;;10.28;65.19;101012.97;4915938;28;96970;-49
2023/01/14 04:24:38;;;;;;;4.13;1.60;;;;;;;10.29;65.20;101014.47;4914714;28;96656;-49
2023/01/14 04:27:03;;;;;;;4.53;1.70;;;;;;;10.31;65.16;101022.97;4912670;28;96985;-50
2023/01/14 04:29:28;;;;;;;5.00;1.40;;;;;;;10.32;65.18;101035.50;4912230;28;97066;-49
2023/01/14 04:31:54;;;;;;;4.20;1.67;;;;;;;10.29;65.18;101033.72;4914331;28;97582;-48
2023/01/14 04:34:19;;;;;;;4.73;1.40;;;;;;;10.28;65.21;101036.94;4912791;28;97838;-49
2023/01/14 04:36:44;;;;;;;3.10;1.80;;;;;;;10.28;65.27;101045.19;4919523;28;97827;-49
2023/01/14 04:39:10;;;;;;;10.17;2.43;;;;;;;10.29;65.23;101041.97;4913110;28;97430;-49
2023/01/14 04:44:19;;;;;;;5.73;1.40;;;;;;;10.29;65.23;101033.72;4912871;28;97218;-50
2023/01/14 04:46:45;;;;;;;4.87;1.60;;;;;;;10.33;65.13;101036.28;4922443;28;97477;-49
2023/01/14 04:49:10;;;;;;;4.53;1.67;;;;;;;10.33;65.14;101036.28;4913596;28;97454;-49
2023/01/14 04:51:36;;;;;;;3.13;1.40;;;;;;;10.33;65.14;101031.50;4911000;28;98394;-49
2023/01/14 04:54:01;;;;;;;6.50;1.83;;;;;;;10.33;65.29;101042.50;4916842;28;97213;-50
2023/01/14 04:56:28;;;;;;;9.13;1.70;;;;;;;10.34;65.05;101030.28;4918810;28;97675;-49
2023/01/14 04:58:53;;;;;;;2.73;1.40;;;;;;;10.35;65.01;101033.78;4912557;28;96927;-49
2023/01/14 05:01:19;;;;;;;5.77;2.00;;;;;;;10.33;65.00;101036.28;4911746;28;97119;-49
2023/01/14 05:03:44;;;;;;;6.17;1.97;;;;;;;10.29;65.13;101036.47;4915886;28;97461;-49
2023/01/14 05:06:09;;;;;;;10.03;1.90;;;;;;;10.30;65.10;101037.22;4915162;28;97627;-49
2023/01/14 05:08:35;;;;;;;4.63;1.90;;;;;;;10.31;65.09;101036.72;4918577;28;97176;-48
2023/01/14 05:11:00;;;;;;;8.17;2.20;;;;;;;10.31;65.07;101031.22;4912095;28;96920;-49
2023/01/14 05:13:25;;;;;;;6.77;2.20;;;;;;;10.34;65.03;101026.78;4903794;28;97153;-49
2023/01/14 05:15:51;;;;;;;4.67;1.47;;;;;;;10.37;64.93;101014.81;4917076;28;97018;-49
2023/01/14 05:18:17;;;;;;;7.00;1.73;;;;;;;10.36;65.00;101019.56;4915624;28;97105;-48
2023/01/14 05:20:44;;;;;;;4.07;1.47;;;;;;;10.37;65.08;101014.81;4913506;28;97019;-49
2023/01/14 05:23:12;;;;;;;5.80;1.37;;;;;;;10.36;65.03;101019.56;4905364;28;100496;-49
2023/01/14 05:25:38;;;;;;;2.87;1.47;;;;;;;10.35;64.93;101026.28;4911604;28;97165;-50
2023/01/14 05:28:06;;;;;;;8.63;1.80;;;;;;;10.37;64.82;101020.31;4909358;28;97160;-49
2023/01/14 05:30:31;;;;;;;6.40;1.37;;;;;;;10.38;64.91;101013.56;4915193;28;96903;-49
2023/01/14 05:32:57;;;;;;;5.77;2.10;;;;;;;10.40;64.88;101016.59;4912075;28;97349;-49
2023/01/14 05:35:22;;;;;;;6.93;1.83;;;;;;;10.42;64.91;101017.63;4907394;28;97501;-49
2023/01/14 05:37:48;;;;;;;4.83;1.87;;;;;;;10.43;64.77;101013.66;4913616;28;97436;-49
2023/01/14 05:40:14;;;;;;;6.10;1.50;;;;;;;10.45;64.72;101018.66;4912150;28;97197;-48
2023/01/14 05:45:40;;;;;;;8.67;2.00;;;;;;;10.38;64.87;101022.56;4913413;28;97059;-49
2023/01/14 05:48:08;;;;;;;6.73;1.73;;;;;;;10.37;64.80;101010.09;4909725;28;96722;-49
2023/01/14 05:50:34;;;;;;;11.17;2.00;;;;;;;10.40;64.86;101000.84;4913123;28;96746;-48
2023/01/14 05:52:59;;;;;;;5.77;2.17;;;;;;;10.37;64.79;100990.81;4915993;28;97102;-49
2023/01/14 05:55:24;;;;;;;7.40;2.13;;;;;;;10.34;64.83;100986.28;4910469;28;99575;-49
2023/01/14 05:57:50;;;;;;;7.60;1.90;;;;;;;10.40;64.82;100987.09;4908055;28;97440;-49
2023/01/14 06:08:29;;;;;;;7.43;1.73;;;;;;;10.44;64.59;100984.16;4910562;28;96949;-49
2023/01/14 06:10:54;;;;;;;8.27;2.13;;;;;;;10.46;64.51;100979.66;4910178;28;96957;-50
2023/01/14 06:13:23;;;;;;;7.33;1.87;;;;;;;10.43;64.44;100975.13;4909347;28;97271;-49
2023/01/14 06:15:51;;;;;;;8.30;1.77;;;;;;;10.43;64.49;100975.13;4910519;28;96904;-49
2023/01/14 06:18:21;;;;;;;8.97;2.37;;;;;;;10.43;64.52;100985.38;4909609;28;96642;-49
2023/01/14 06:20:47;;;;;;;17.73;2.57;;;;;;;10.43;64.36;100988.13;4906493;28;97341;-49
2023/01/14 06:23:16;;;;;;;10.53;2.20;;;;;;;10.40;64.47;100976.09;4911068;28;96737;-49
2023/01/14 06:25:46;;;;;;;11.83;2.30;;;;;;;10.41;64.41;100963.88;4908852;28;96971;-48
2023/01/14 06:28:12;;;;;;;8.60;2.30;;;;;;;10.36;64.36;100956.31;4906208;28;96913;-49
2023/01/14 06:30:38;;;;;;;5.83;1.67;;;;;;;10.35;64.34;100960.28;4901539;28;97497;-49
2023/01/14 06:33:03;;;;;;;8.77;2.43;;;;;;;10.30;64.29;100961.00;4912242;28;97605;-50
2023/01/14 06:35:28;;;;;;;13.07;2.27;;;;;;;10.26;64.35;100968.69;4907984;28;97904;-49
2023/01/14 06:37:54;;;;;;;7.40;1.83;;;;;;;10.23;64.50;100979.88;4909718;28;97737;-49
2023/01/14 06:40:19;;;;;;;8.53;2.17;;;;;;;10.27;64.50;100967.44;4910932;28;96958;-49
2023/01/14 06:42:45;;;;;;;5.93;1.63;;;;;;;10.29;64.39;100964.19;4907773;28;98050;-48
2023/01/14 06:45:11;;;;;;;5.00;2.20;;;;;;;10.26;64.25;100976.94;4907479;28;97731;-48
2023/01/14 06:47:37;;;;;;;5.20;2.50;;;;;;;10.27;64.39;100972.94;4911015;28;97170;-48
2023/01/14 06:50:04;;;;;;;5.90;2.30;;;;;;;10.24;64.34;100967.66;4907318;28;96888;-49
2023/01/14 06:52:29;;;;;;;11.00;2.10;;;;;;;10.27;64.17;100961.94;4911586;28;97041;-49
2023/01/14 06:54:55;;;;;;;11.83;2.50;;;;;;;10.22;64.14;100962.63;4909708;28;97239;-49
2023/01/14 06:57:21;;;;;;;6.33;2.40;;;;;;;10.18;64.08;100953.84;4905765;28;97114;-49
2023/01/14 06:59:47;;;;;;;7.20;2.80;;;;;;;10.15;64.09;100959.53;4911073;28;96811;-49
2023/01/14 07:02:13;;;;;;;6.40;2.07;;;;;;;10.09;64.13;100953.94;4909439;28;96857;-49
2023/01/14 07:04:39;;;;;;;5.23;1.90;;;;;;;10.10;64.16;100949.97;4906089;28;97149;-49
2023/01/14 07:07:05;;;;;;;9.77;2.47;;;;;;;10.09;64.12;100942.94;4908253;28;97236;-48
2023/01/14 07:09:31;;;;;;;5.13;2.20;;;;;;;10.05;64.06;100944.38;4911617;28;97208;-49
2023/01/14 07:11:56;;;;;;;8.70;2.73;;;;;;;10.00;64.11;100943.09;4908592;28;97038;-49
2023/01/14 07:14:21;;;;;;;8.93;3.00;;;;;;;10.00;64.04;100943.09;4923560;28;97508;-49
2023/01/14 07:16:47;;;;;;;11.10;3.27;;;;;;;10.00;64.08;100937.59;4908224;28;97190;-49
2023/01/14 07:19:12;;;;;;;6.90;2.10;;;;;;;10.01;64.00;100938.34;4904517;28;96984;-49
2023/01/14 07:21:38;;;;;;;7.67;2.53;;;;;;;9.98;63.87;100934.56;4909363;28;97125;-50
2023/01/14 07:24:05;;;;;;;6.57;2.50;;;;;;;9.97;63.93;100932.31;4907309;28;97153;-49
2023/01/14 07:26:31;;;;;;;10.20;3.00;;;;;;;9.92;63.93;100930.22;4907918;28;96720;-48
2023/01/14 07:28:56;;;;;;;7.53;2.77;;;;;;;9.91;63.91;100934.22;4908168;28;97509;-49
2023/01/14 07:31:21;;;;;;;12.93;2.87;;;;;;;9.89;64.01;100920.22;4914812;28;97400;-49
2023/01/14 07:33:47;;;;;;;9.47;3.00;;;;;;;9.90;64.07;100914.22;4906361;28;97133;-48
2023/01/14 07:36:13;;;;;;;9.63;2.30;;;;;;;9.93;64.03;100916.03;4909148;28;96867;-49
2023/01/14 07:38:38;;;;;;;13.03;2.97;;;;;;;9.93;63.92;100905.03;4910249;28;96926;-49
2023/01/14 07:41:11;;;;;;;7.70;2.90;;;;;;;9.96;63.94;100893.06;4906007;28;96812;-48
2023/01/14 07:43:37;;;;;;;12.70;2.57;;;;;;;9.99;64.02;100885.84;4910281;28;97509;-49
2023/01/14 07:46:02;;;;;;;7.90;3.07;;;;;;;9.98;64.00;100889.84;4912715;28;97195;-48
2023/01/14 07:48:29;;;;;;;5.90;2.57;;;;;;;9.98;63.96;100885.09;4906321;28;97087;-48
2023/01/14 07:50:55;;;;;;;8.50;3.70;;;;;;;9.98;64.14;100884.34;4906858;28;97029;-49
2023/01/14 07:53:20;;;;;;;11.37;3.17;;;;;;;9.98;64.03;100874.09;4913266;28;97126;-49
2023/01/14 07:55:46;;;;;;;10.73;3.00;;;;;;;10.00;64.01;100876.38;4912393;28;97254;-49
2023/01/14 07:58:11;;;;;;;5.30;3.00;;;;;;;10.01;63.96;100864.88;4907131;28;96665;-49
2023/01/14 08:00:37;;;;;;;5.77;3.10;;;;;;;9.98;63.91;100865.13;4911103;28;97166;-49
2023/01/14 08:03:02;;;;;;;10.97;3.20;;;;;;;10.01;63.85;100866.88;4911027;28;97535;-49
2023/01/14 08:05:28;;;;;;;8.33;2.40;;;;;;;10.01;63.90;100877.88;4910079;28;97027;-49
2023/01/14 08:07:53;;;;;;;13.43;2.70;;;;;;;10.06;63.88;100880.69;4914867;28;100677;-49
2023/01/14 08:10:19;;;;;;;9.03;2.37;;;;;;;10.11;63.87;100873.78;4909090;28;96918;-49
2023/01/14 08:12:45;;;;;;;10.50;2.43;;;;;;;10.15;63.78;100872.34;4905082;28;96913;-49
2023/01/14 08:15:12;;;;;;;5.50;2.13;;;;;;;10.19;63.70;100869.38;4907760;28;96861;-49
2023/01/14 08:17:38;;;;;;;6.43;2.43;;;;;;;10.23;63.52;100867.16;4911047;28;97321;-49
2023/01/14 08:20:04;;;;;;;8.03;3.10;;;;;;;10.24;63.62;100863.91;4906027;28;96825;-49
2023/01/14 08:22:29;;;;;;;6.33;2.13;;;;;;;10.27;63.57;100864.94;4910002;28;96883;-48
2023/01/14 08:24:55;;;;;;;8.13;2.80;;;;;;;10.28;63.58;100869.97;4907940;28;97181;-49
2023/01/14 08:27:20;;;;;;;8.27;2.90;;;;;;;10.29;63.54;100865.97;4906343;28;97075;-49
2023/01/14 08:29:46;;;;;;;5.10;2.00;;;;;;;10.30;63.53;100866.72;4907431;28;97865;-50
2023/01/14 08:32:13;;;;;;;5.33;2.23;;;;;;;10.29;63.45;100860.47;4911967;28;97118;-49
2023/01/14 08:34:38;;;;;;;9.60;2.50;;;;;;;10.30;63.52;100862.00;4905340;28;97151;-49
2023/01/14 08:37:03;;;;;;;11.50;2.33;;;;;;;10.31;63.51;100863.50;4907067;28;98395;-49
2023/01/14 08:39:29;;;;;;;7.13;2.60;;;;;;;10.33;63.49;100858.25;4916207;28;97111;-50
2023/01/14 08:41:54;;;;;;;10.47;2.87;;;;;;;10.34;63.56;100856.25;4907818;28;97134;-49
2023/01/14 08:44:19;;;;;;;12.40;2.13;;;;;;;10.37;63.70;100847.06;4908439;28;96813;-49
2023/01/14 08:46:45;;;;;;;11.77;2.00;;;;;;;10.41;63.59;100845.59;4912149;28;97393;-49
2023/01/14 08:49:11;;;;;;;8.10;2.30;;;;;;;10.42;63.51;100838.84;4906198;28;96840;-50
2023/01/14 08:51:36;;;;;;;11.67;2.30;;;;;;;10.42;63.40;100832.59;4910972;28;97234;-49
2023/01/14 08:54:02;;;;;;;11.20;2.10;;;;;;;10.45;63.47;100828.88;4907498;28;97092;-49
2023/01/14 08:56:28;;;;;;;4.77;1.90;;;;;;;10.45;63.43;100813.13;4906102;28;96830;-49
2023/01/14 08:58:54;;;;;;;12.27;2.60;;;;;;;10.46;63.33;100808.38;4907717;28;97420;-50
2023/01/14 09:01:19;;;;;;;4.90;2.07;;;;;;;10.46;63.35;100803.63;4911951;28;97190;-49
2023/01/14 09:03:46;;;;;;;3.90;1.47;;;;;;;10.45;63.38;100806.88;4907118;28;97192;-48
2023/01/14 09:06:13;;;;;;;6.90;1.60;;;;;;;10.43;63.25;100790.84;4909416;28;97016;-49
2023/01/14 09:17:27;;;;;;;4.57;1.50;;;;;;;10.48;63.32;100770.88;4946163;28;97250;-49
2023/01/14 09:19:55;;;;;;;7.93;1.73;;;;;;;10.54;63.30;100766.19;4945571;28;98202;-48
2023/01/14 09:22:24;;;;;;;5.03;1.50;;;;;;;10.57;63.12;100776.19;4933463;28;97127;-49
2023/01/14 09:24:50;;;;;;;9.77;1.53;;;;;;;10.56;62.93;100768.44;4919474;28;97320;-48
2023/01/14 09:27:16;;;;;;;7.17;2.40;;;;;;;10.61;63.17;100766.97;4909162;28;97288;-48
2023/01/14 09:29:41;;;;;;;9.07;1.80;;;;;;;10.66;63.01;100756.00;4899217;28;97261;-49
2023/01/14 09:32:12;;;;;;;8.10;1.70;;;;;;;10.67;62.93;100751.25;4909259;28;96954;-48
2023/01/14 09:34:41;;;;;;;8.33;1.97;;;;;;;10.71;62.83;100740.78;4903116;28;97210;-48
2023/01/14 09:37:10;;;;;;;6.33;1.93;;;;;;;10.70;63.02;100739.28;4916586;28;97170;-49
2023/01/14 09:39:35;;;;;;;4.47;1.27;;;;;;;10.69;62.93;100721.25;4911635;28;97157;-49
2023/01/14 09:42:08;;;;;;;9.40;2.27;;;;;;;10.69;62.70;100733.03;4902235;28;98145;-48
2023/01/14 09:44:34;;;;;;;6.63;1.87;;;;;;;10.69;62.66;100727.53;4911277;28;97017;-48
2023/01/14 09:46:59;;;;;;;7.70;1.33;;;;;;;10.73;62.62;100725.28;4916643;28;96860;-48
2023/01/14 09:49:27;;;;;;;4.77;1.67;;;;;;;10.74;62.77;100726.06;4909331;28;97090;-47
2023/01/14 09:52:28;;;;;;;7.37;1.60;;;;;;;10.75;62.19;100724.78;4911611;28;97315;-48
2023/01/14 09:54:59;;;;;;;5.47;1.40;;;;;;;10.77;62.64;100723.06;4908559;28;97097;-48
2023/01/14 09:57:42;;;;;;;8.93;1.23;;;;;;;10.79;62.07;100717.09;4913421;28;97146;-49
2023/01/14 10:00:29;;;;;;;2.40;1.17;;;;;;;10.77;61.75;100703.06;4903506;28;96960;-48
2023/01/14 10:02:57;;;;;;;6.40;1.37;;;;;;;10.78;62.16;100696.31;4909383;28;97142;-48
2023/01/14 10:05:30;;;;;;;10.23;1.50;;;;;;;10.81;62.10;100695.31;4906592;28;96824;-48
2023/01/14 10:08:02;;;;;;;9.10;2.00;;;;;;;10.84;62.21;100680.56;4909807;28;97388;-48
2023/01/14 10:10:38;;;;;;;1.90;1.00;;;;;;;10.88;62.08;100664.56;4909573;28;97452;-49
2023/01/14 10:13:12;;;;;;;2.13;1.10;;;;;;;10.89;61.82;100657.81;4905326;28;97012;-49
2023/01/14 10:15:47;;;;;;;10.70;1.47;;;;;;;10.89;61.74;100664.09;4910279;28;97302;-49
2023/01/14 10:18:35;;;;;;;11.97;2.10;;;;;;;10.93;61.53;100659.09;4910340;28;96698;-49
2023/01/14 10:21:29;;;;;;;8.33;1.77;;;;;;;10.93;60.41;100656.34;4908430;28;99201;-49
2023/01/14 10:23:55;;;;;;;5.70;1.40;;;;;;;10.95;61.97;100648.34;4916782;28;97309;-47
2023/01/14 10:26:22;;;;;;;9.87;1.40;;;;;;;10.96;61.89;100636.09;4909878;28;97019;-49
2023/01/14 10:28:51;;;;;;;5.40;1.73;;;;;;;10.98;62.00;100624.59;4910165;28;96951;-49
2023/01/14 10:31:28;;;;;;;9.23;1.33;;;;;;;11.00;61.82;100619.34;4910805;28;97298;-49
2023/01/14 10:33:54;;;;;;;3.63;1.13;;;;;;;10.98;61.80;100610.81;4907692;28;97427;-48
2023/01/14 10:36:23;;;;;;;6.97;1.27;;;;;;;11.01;61.88;100609.81;4910995;28;97309;-49
2023/01/14 10:38:49;;;;;;;7.13;1.50;;;;;;;11.03;61.81;100590.81;4913473;28;96861;-49
2023/01/14 10:41:15;;;;;;;14.93;1.90;;;;;;;11.01;61.91;100587.78;4908657;28;99218;-48
2023/01/14 10:43:46;;;;;;;6.23;1.20;;;;;;;11.00;61.89;100587.06;4915361;28;97059;-48
2023/01/14 10:46:20;;;;;;;7.50;1.80;;;;;;;10.96;61.72;100578.31;4911956;28;97398;-49
2023/01/14 10:49:14;;;;;;;6.50;1.23;;;;;;;10.96;61.70;100578.31;4909290;28;97202;-48
2023/01/14 10:51:47;;;;;;;6.50;1.57;;;;;;;10.92;62.34;100571.53;4909561;28;96854;-49
2023/01/14 10:54:21;;;;;;;7.80;1.17;;;;;;;10.91;62.37;100559.75;4909434;28;96808;-49
2023/01/14 10:56:54;;;;;;;8.40;1.27;;;;;;;10.92;62.52;100555.00;4904368;28;97007;-48
2023/01/14 10:59:33;;;;;;;4.63;1.50;;;;;;;10.85;62.55;100550.00;4907121;28;97126;-49
2023/01/14 11:01:59;;;;;;;2.77;0.73;;;;;;;10.77;62.70;100546.94;4907443;28;97359;-51
2023/01/14 11:04:31;;;;;;;4.53;1.40;;;;;;;10.74;63.06;100547.19;4906634;28;97069;-50
2023/01/14 11:06:57;;;;;;;3.47;1.10;;;;;;;10.75;63.16;100543.19;4908032;28;96875;-49
2023/01/14 11:09:29;;;;;;;6.03;1.40;;;;;;;10.70;63.23;100535.69;4907806;28;96937;-49
2023/01/14 11:11:56;;;;;;;3.93;1.27;;;;;;;10.65;63.28;100517.16;4906505;28;98837;-50
2023/01/14 11:14:24;;;;;;;6.63;1.40;;;;;;;10.61;63.40;100500.91;4907025;28;97101;-50
2023/01/14 11:16:49;;;;;;;6.97;1.40;;;;;;;10.62;63.53;100490.63;4907689;28;96803;-51
2023/01/14 11:19:15;;;;;;;10.37;1.67;;;;;;;10.57;63.51;100480.38;4908694;28;97367;-51
2023/01/14 11:21:42;;;;;;;5.10;1.53;;;;;;;10.54;63.69;100474.63;4904737;28;97324;-50
2023/01/14 11:24:51;;;;;;;4.50;1.33;;;;;;;10.53;64.11;100459.34;4908210;28;96969;-50
2023/01/14 11:27:23;;;;;;;1.70;1.10;;;;;;;10.52;63.97;100463.38;4903339;28;96978;-50
2023/01/14 11:29:54;;;;;;;5.90;1.73;;;;;;;10.52;64.05;100443.34;4913320;28;97093;-50
2023/01/14 11:32:27;;;;;;;5.63;1.97;;;;;;;10.49;64.09;100436.84;4908397;28;97057;-52
2023/01/14 11:35:18;;;;;;;6.80;1.77;;;;;;;10.47;64.58;100427.59;4907211;28;96692;-52
2023/01/14 11:37:47;;;;;;;6.27;1.60;;;;;;;10.47;64.09;100413.84;4902492;28;97303;-50
2023/01/14 11:43:15;;;;;;;5.60;1.30;;;;;;;10.46;64.30;100393.09;4903704;28;97269;-51
2023/01/14 11:45:41;;;;;;;7.47;1.73;;;;;;;10.47;64.36;100380.81;4907061;28;97547;-53
2023/01/14 11:48:29;;;;;;;3.43;1.20;;;;;;;10.45;64.85;100367.59;4915113;28;96959;-52
2023/01/14 11:51:03;;;;;;;8.87;1.37;;;;;;;10.42;64.61;100356.81;4905499;28;96860;-50
2023/01/14 11:53:44;;;;;;;4.57;1.60;;;;;;;10.36;64.84;100334.06;4909548;28;96983;-51
2023/01/14 11:56:35;;;;;;;8.27;1.50;;;;;;;10.29;65.33;100320.81;4907389;28;97953;-50
2023/01/14 11:59:14;;;;;;;4.37;1.27;;;;;;;10.28;65.03;100314.56;4907897;28;97190;-50
2023/01/14 12:01:45;;;;;;;3.37;1.43;;;;;;;10.27;64.92;100313.06;4907465;28;97133;-51
2023/01/14 12:04:19;;;;;;;6.63;1.47;;;;;;;10.26;65.09;100308.81;4905219;28;96935;-50
2023/01/14 12:06:53;;;;;;;4.80;0.80;;;;;;;10.26;65.21;100297.81;4913562;28;97152;-52
2023/01/14 12:09:24;;;;;;;1.73;1.00;;;;;;;10.27;65.16;100304.06;4911769;28;96734;-50
2023/01/14 12:11:58;;;;;;;3.90;1.00;;;;;;;10.27;65.39;100296.56;4904400;28;96998;-53